Time;durP1;ratioP1;P1;durP2;ratioP2;P2;SDS_P1;SDS_P2;PMS_P1;PMS_P2;Temp;Humidity;BMP_temperature;BMP_pressure;BME280_temperature;BME280_humidity;BME280_pressure;Samples;Min_cycle;Max_cycle;Signal;HPM_P1;HPM_P2
2022/03/24 00:01:57;;;;;;;12.73;11.43;;;9.70;26.10;;;;;;6187070;23;20388;-88
2022/03/24 00:04:23;;;;;;;14.13;10.37;;;9.80;26.00;;;;;;6187119;23;20848;-87
2022/03/24 00:06:49;;;;;;;14.33;12.83;;;9.80;25.70;;;;;;6188189;23;20387;-88
2022/03/24 00:09:15;;;;;;;14.20;11.40;;;9.80;26.10;;;;;;6188568;23;20473;-88
2022/03/24 00:11:41;;;;;;;16.20;12.73;;;9.70;26.10;;;;;;6187801;23;20156;-88
2022/03/24 00:14:07;;;;;;;14.80;12.20;;;9.70;26.40;;;;;;6199841;23;20402;-87
2022/03/24 00:16:33;;;;;;;19.97;11.70;;;9.70;26.80;;;;;;6206293;23;20156;-87
2022/03/24 00:18:59;;;;;;;19.30;12.30;;;9.60;26.90;;;;;;6190122;23;20521;-88
2022/03/24 00:21:26;;;;;;;21.10;19.07;;;9.50;26.70;;;;;;6189231;23;20402;-87
2022/03/24 00:23:52;;;;;;;13.53;10.93;;;9.50;26.80;;;;;;6188122;23;20235;-88
2022/03/24 00:26:18;;;;;;;16.27;11.00;;;9.40;27.10;;;;;;6188292;23;20407;-88
2022/03/24 00:28:44;;;;;;;15.80;11.90;;;9.40;27.60;;;;;;6187651;23;20397;-87
2022/03/24 00:31:10;;;;;;;15.67;12.57;;;9.30;27.20;;;;;;6213405;23;20401;-89
2022/03/24 00:33:38;;;;;;;16.97;12.37;;;9.30;27.60;;;;;;6186115;23;20419;-89
2022/03/24 00:36:09;;;;;;;14.50;11.40;;;9.30;27.90;;;;;;6186249;23;20152;-87
2022/03/24 00:38:34;;;;;;;17.10;13.40;;;9.30;27.90;;;;;;6186356;23;20426;-89
2022/03/24 00:41:02;;;;;;;11.70;10.30;;;9.30;27.90;;;;;;6191237;23;20391;-87
2022/03/24 00:43:29;;;;;;;15.87;12.43;;;9.30;27.60;;;;;;6187611;23;20434;-87
2022/03/24 00:45:55;;;;;;;15.30;12.43;;;9.30;27.50;;;;;;6186515;23;20417;-87
2022/03/24 00:48:23;;;;;;;17.73;12.20;;;9.30;27.40;;;;;;6187846;23;20387;-87
2022/03/24 00:50:49;;;;;;;14.07;9.83;;;9.30;27.60;;;;;;6186697;23;20395;-87
2022/03/24 00:53:16;;;;;;;12.90;11.57;;;9.20;27.60;;;;;;6186396;23;20474;-88
2022/03/24 00:55:43;;;;;;;13.50;11.17;;;9.20;27.70;;;;;;6185404;23;20402;-88
2022/03/24 00:58:10;;;;;;;16.60;12.13;;;9.10;28.20;;;;;;6184945;23;20568;-87
2022/03/24 01:00:37;;;;;;;15.90;11.13;;;9.00;28.70;;;;;;6185155;23;20393;-87
2022/03/24 01:03:06;;;;;;;16.60;11.90;;;8.90;28.90;;;;;;6185294;23;20855;-88
2022/03/24 01:05:37;;;;;;;14.93;12.57;;;9.00;28.80;;;;;;6186122;23;20919;-87
2022/03/24 01:08:08;;;;;;;16.40;13.80;;;8.90;28.70;;;;;;6185617;23;20406;-88
2022/03/24 01:10:35;;;;;;;16.70;13.03;;;9.00;28.30;;;;;;6185942;23;20383;-88
2022/03/24 01:13:01;;;;;;;13.17;10.57;;;9.00;28.20;;;;;;6211875;23;20715;-87
2022/03/24 01:15:28;;;;;;;14.77;12.30;;;9.00;28.70;;;;;;6185193;23;20391;-88
2022/03/24 01:17:55;;;;;;;16.00;12.40;;;8.90;28.40;;;;;;6186737;23;20761;-87
2022/03/24 01:20:21;;;;;;;13.87;11.30;;;8.90;28.40;;;;;;6186549;23;20433;-87
2022/03/24 01:22:47;;;;;;;16.00;11.87;;;8.80;28.60;;;;;;6186028;23;20383;-87
2022/03/24 01:25:12;;;;;;;15.63;12.07;;;8.80;28.90;;;;;;6185006;23;20387;-84
2022/03/24 01:27:45;;;;;;;14.63;10.10;;;8.80;28.90;;;;;;6186285;23;20153;-88
2022/03/24 01:30:21;;;;;;;15.27;11.90;;;8.80;29.50;;;;;;6185546;23;20160;-88
2022/03/24 01:32:53;;;;;;;19.00;16.00;;;8.70;29.00;;;;;;6184834;23;20930;-88
2022/03/24 01:35:23;;;;;;;13.80;10.40;;;8.70;29.40;;;;;;6184763;23;20720;-88
2022/03/24 01:37:49;;;;;;;20.87;11.43;;;8.60;29.30;;;;;;6208445;23;20391;-88
2022/03/24 01:40:16;;;;;;;20.97;11.33;;;8.60;29.00;;;;;;6185150;23;20882;-88
2022/03/24 01:42:48;;;;;;;15.00;11.80;;;8.60;28.50;;;;;;6185100;23;20387;-88
2022/03/24 01:45:27;;;;;;;16.43;11.60;;;8.50;28.70;;;;;;6184345;23;20445;-88
2022/03/24 01:48:01;;;;;;;20.67;14.00;;;8.60;28.90;;;;;;6210980;23;20405;-88
2022/03/24 01:50:41;;;;;;;14.70;11.63;;;8.60;29.10;;;;;;6210581;23;20383;-88
2022/03/24 01:53:12;;;;;;;17.67;10.63;;;8.60;28.80;;;;;;6186539;23;20473;-88
2022/03/24 01:55:54;;;;;;;14.40;11.40;;;8.50;29.10;;;;;;6185013;23;20390;-88
2022/03/24 01:58:26;;;;;;;15.27;11.53;;;8.40;28.50;;;;;;6185608;23;20737;-88
2022/03/24 02:01:22;;;;;;;13.23;10.40;;;8.40;28.70;;;;;;6210893;23;20383;-88
2022/03/24 02:03:56;;;;;;;18.33;11.90;;;8.30;28.70;;;;;;6184892;23;20401;-88
2022/03/24 02:06:24;;;;;;;11.53;10.37;;;8.30;29.00;;;;;;6184891;23;20384;-87
2022/03/24 02:08:56;;;;;;;14.03;11.33;;;8.30;28.90;;;;;;6184385;23;20391;-88
2022/03/24 02:11:25;;;;;;;14.43;9.73;;;8.30;29.00;;;;;;6184464;23;20436;-88
2022/03/24 02:13:52;;;;;;;15.43;12.03;;;8.30;29.20;;;;;;6185362;23;20391;-88
2022/03/24 02:16:27;;;;;;;18.07;11.03;;;8.30;30.10;;;;;;6184548;23;20958;-88
2022/03/24 02:18:59;;;;;;;17.30;12.03;;;8.20;30.50;;;;;;6184950;23;20801;-88
2022/03/24 02:21:31;;;;;;;17.47;10.40;;;8.10;30.90;;;;;;6184423;23;20379;-88
2022/03/24 02:23:59;;;;;;;13.80;11.37;;;8.10;30.60;;;;;;6210215;23;20481;-88
2022/03/24 02:26:30;;;;;;;14.10;11.27;;;8.20;30.00;;;;;;6184684;23;20383;-88
2022/03/24 02:29:01;;;;;;;21.47;19.30;;;8.20;30.10;;;;;;6184107;23;20445;-88
2022/03/24 02:31:39;;;;;;;17.77;10.87;;;8.10;30.30;;;;;;6185035;23;20388;-88
2022/03/24 02:37:02;;;;;;;16.47;11.87;;;8.00;30.30;;;;;;6213326;23;20792;-88
2022/03/24 02:39:29;;;;;;;14.40;11.27;;;8.10;30.10;;;;;;6184292;23;20434;-87
2022/03/24 02:41:58;;;;;;;16.10;11.37;;;8.00;30.20;;;;;;6184379;23;20406;-87
2022/03/24 02:44:27;;;;;;;17.47;11.93;;;7.90;30.10;;;;;;6199571;23;20417;-88
2022/03/24 02:46:59;;;;;;;14.60;10.90;;;7.90;30.00;;;;;;6196257;23;20389;-88
2022/03/24 02:49:39;;;;;;;15.80;10.87;;;7.90;30.10;;;;;;6188160;23;20401;-88
2022/03/24 02:52:07;;;;;;;16.07;10.73;;;7.90;30.80;;;;;;6185025;23;20386;-88
2022/03/24 02:54:37;;;;;;;11.80;10.47;;;7.80;30.60;;;;;;6184732;23;20477;-88
2022/03/24 02:57:10;;;;;;;14.70;11.67;;;7.70;30.50;;;;;;6184113;23;20692;-88
2022/03/24 02:59:48;;;;;;;21.50;11.53;;;7.80;30.30;;;;;;6183998;23;20422;-88
2022/03/24 03:02:22;;;;;;;18.40;11.47;;;7.90;30.50;;;;;;6185252;23;20545;-88
2022/03/24 03:04:53;;;;;;;18.30;16.37;;;7.90;30.70;;;;;;6182930;23;20398;-88
2022/03/24 03:07:28;;;;;;;21.40;19.23;;;7.90;30.70;;;;;;6184110;23;20466;-88
2022/03/24 03:09:57;;;;;;;21.30;18.40;;;7.80;30.70;;;;;;6184474;23;20401;-86
2022/03/24 03:12:28;;;;;;;20.50;17.07;;;7.90;30.70;;;;;;6185767;23;20389;-87
2022/03/24 03:14:56;;;;;;;15.27;13.77;;;7.70;30.70;;;;;;6184358;23;20398;-88
2022/03/24 03:17:25;;;;;;;17.10;15.33;;;7.70;31.30;;;;;;6184846;23;20387;-87
2022/03/24 03:19:51;;;;;;;20.77;18.67;;;7.60;31.90;;;;;;6184213;23;20760;-87
2022/03/24 03:22:21;;;;;;;20.00;17.90;;;7.70;31.10;;;;;;6185833;23;20445;-88
2022/03/24 03:24:56;;;;;;;21.20;18.83;;;7.70;31.50;;;;;;6186263;23;20398;-87
2022/03/24 03:27:32;;;;;;;18.53;16.67;;;7.60;31.70;;;;;;6184989;23;20389;-88
2022/03/24 03:29:57;;;;;;;20.27;18.17;;;7.60;32.40;;;;;;6212248;23;20359;-87
2022/03/24 03:32:24;;;;;;;19.90;16.60;;;7.50;32.60;;;;;;6186337;23;20404;-88
2022/03/24 03:34:53;;;;;;;20.83;16.37;;;7.50;32.30;;;;;;6210478;23;20160;-87
2022/03/24 03:37:19;;;;;;;19.70;17.77;;;7.60;32.10;;;;;;6185993;23;20390;-87
2022/03/24 03:39:45;;;;;;;21.57;19.47;;;7.50;32.40;;;;;;6185754;23;20935;-88
2022/03/24 03:42:16;;;;;;;18.97;16.97;;;7.50;32.40;;;;;;6185477;23;20383;-87
2022/03/24 03:44:52;;;;;;;22.07;19.90;;;7.40;32.70;;;;;;6186293;23;20393;-87
2022/03/24 03:47:18;;;;;;;15.47;12.97;;;7.40;32.60;;;;;;6185531;23;20389;-87
2022/03/24 03:49:44;;;;;;;19.27;15.43;;;7.50;32.60;;;;;;6185839;23;20394;-88
2022/03/24 03:52:13;;;;;;;22.70;20.50;;;7.40;32.50;;;;;;6210214;23;20914;-87
2022/03/24 03:54:47;;;;;;;16.07;12.20;;;7.30;32.50;;;;;;6186171;23;20156;-88
2022/03/24 03:57:31;;;;;;;13.07;11.77;;;7.30;32.50;;;;;;6185866;23;20513;-87
2022/03/24 04:00:52;;;;;;;17.87;11.20;;;7.30;32.70;;;;;;6185358;23;20419;-87
2022/03/24 04:02:54;;;;;;;21.40;14.63;;;7.30;32.40;;;;;;6211257;23;20379;-87
2022/03/24 04:05:31;;;;;;;23.90;21.30;;;7.20;32.50;;;;;;6185760;23;20471;-87
2022/03/24 04:08:12;;;;;;;13.50;11.77;;;7.20;32.70;;;;;;6183395;23;20390;-87
2022/03/24 04:10:40;;;;;;;23.53;19.80;;;7.10;32.60;;;;;;6212229;23;20371;-87
2022/03/24 04:13:15;;;;;;;14.67;12.80;;;7.10;33.00;;;;;;6210790;23;20864;-87
2022/03/24 04:15:46;;;;;;;19.93;16.10;;;7.00;32.80;;;;;;6185367;23;20409;-87
2022/03/24 04:18:13;;;;;;;23.80;19.20;;;7.00;33.10;;;;;;6186239;23;20449;-87
2022/03/24 04:20:39;;;;;;;19.90;18.00;;;7.10;33.20;;;;;;6186287;23;20466;-87
2022/03/24 04:23:08;;;;;;;21.23;18.80;;;7.00;33.10;;;;;;6186299;23;20422;-87
2022/03/24 04:25:36;;;;;;;23.10;18.63;;;7.00;33.10;;;;;;6188978;23;20383;-88
2022/03/24 04:28:03;;;;;;;19.10;17.13;;;7.00;32.80;;;;;;6186621;23;20454;-87
2022/03/24 04:30:32;;;;;;;19.07;17.00;;;7.00;32.90;;;;;;6187323;23;20383;-87
2022/03/24 04:33:07;;;;;;;17.52;13.85;;;6.90;32.80;;;;;;6186269;23;20447;-88
2022/03/24 04:35:33;;;;;;;13.40;12.13;;;6.90;32.90;;;;;;6187828;23;20163;-87
2022/03/24 04:38:07;;;;;;;15.83;11.13;;;7.00;34.00;;;;;;6187111;23;20427;-87
2022/03/24 04:40:41;;;;;;;13.20;11.43;;;7.10;33.50;;;;;;6187290;23;20494;-87
2022/03/24 04:43:10;;;;;;;14.00;12.50;;;7.20;32.90;;;;;;6187221;23;20414;-87
2022/03/24 04:45:44;;;;;;;12.73;11.23;;;7.20;32.90;;;;;;6187415;23;20445;-88
2022/03/24 04:51:24;;;;;;;16.47;12.10;;;7.10;33.90;;;;;;6183476;23;20394;-85
2022/03/24 04:57:14;;;;;;;25.37;22.87;;;6.90;34.40;;;;;;6122020;23;20397;-82
2022/03/24 04:59:40;;;;;;;24.03;21.93;;;7.00;34.00;;;;;;6181690;23;20489;-82
2022/03/24 05:02:08;;;;;;;21.80;19.30;;;7.10;33.60;;;;;;6187887;23;20152;-82
2022/03/24 05:04:34;;;;;;;22.97;20.67;;;7.00;33.40;;;;;;6187568;23;20387;-83
2022/03/24 05:07:00;;;;;;;21.87;19.83;;;7.00;33.40;;;;;;6187674;23;20383;-83
2022/03/24 05:09:27;;;;;;;24.20;21.80;;;7.00;34.00;;;;;;6188768;23;20867;-83
2022/03/24 05:11:53;;;;;;;24.27;21.67;;;7.00;34.00;;;;;;6189335;23;20390;-83
2022/03/24 05:14:19;;;;;;;20.27;18.27;;;6.80;34.40;;;;;;6215743;23;20379;-83
2022/03/24 05:16:55;;;;;;;21.87;19.63;;;6.60;34.50;;;;;;6188942;23;20171;-82
2022/03/24 05:19:44;;;;;;;23.17;21.00;;;6.60;35.00;;;;;;6215224;23;20656;-87
2022/03/24 05:22:13;;;;;;;22.23;20.27;;;6.60;34.70;;;;;;6176544;23;20406;-87
2022/03/24 05:24:50;;;;;;;22.70;20.40;;;6.60;34.80;;;;;;6189401;23;20778;-87
2022/03/24 05:27:27;;;;;;;19.70;17.70;;;6.60;34.80;;;;;;6190044;23;20389;-87
2022/03/24 05:29:56;;;;;;;22.43;20.40;;;6.60;34.90;;;;;;6189397;23;20382;-87
2022/03/24 05:32:27;;;;;;;22.10;19.80;;;6.50;34.70;;;;;;6188283;23;20436;-88
2022/03/24 05:34:56;;;;;;;22.20;20.10;;;6.60;34.90;;;;;;6212471;23;20440;-88
2022/03/24 05:37:22;;;;;;;22.53;20.10;;;6.60;34.40;;;;;;6212511;23;20844;-88
2022/03/24 05:39:48;;;;;;;23.97;21.50;;;6.50;34.30;;;;;;6187186;23;20472;-87
2022/03/24 05:42:13;;;;;;;21.90;19.20;;;6.50;34.60;;;;;;6212137;23;20391;-86
2022/03/24 05:44:48;;;;;;;23.63;21.33;;;6.50;34.70;;;;;;6187036;23;20379;-88
2022/03/24 05:47:14;;;;;;;19.47;17.67;;;6.50;34.80;;;;;;6213900;23;20568;-87
2022/03/24 05:49:40;;;;;;;21.50;19.50;;;6.40;34.50;;;;;;6187135;23;20390;-86
2022/03/24 05:52:06;;;;;;;23.40;21.20;;;6.50;34.30;;;;;;6188216;23;20156;-86
2022/03/24 05:54:32;;;;;;;23.50;21.00;;;6.40;34.40;;;;;;6187213;23;20155;-87
2022/03/24 05:56:57;;;;;;;24.57;22.10;;;6.20;34.30;;;;;;6186112;23;20464;-87
2022/03/24 05:59:23;;;;;;;13.80;12.00;;;6.40;34.50;;;;;;6186120;23;20187;-86
2022/03/24 06:01:49;;;;;;;15.30;12.70;;;6.50;33.40;;;;;;6184783;23;20155;-86
2022/03/24 06:04:18;;;;;;;19.90;12.80;;;6.40;33.70;;;;;;6187946;23;20167;-86
2022/03/24 06:06:44;;;;;;;14.97;12.30;;;6.50;34.00;;;;;;6188811;23;20154;-88
2022/03/24 06:09:10;;;;;;;14.03;12.53;;;6.40;34.10;;;;;;6188769;23;20474;-86
2022/03/24 06:11:37;;;;;;;19.50;16.80;;;6.40;34.20;;;;;;6188261;23;20468;-86
2022/03/24 06:14:04;;;;;;;22.50;17.57;;;6.30;34.00;;;;;;6187726;23;20171;-86
2022/03/24 06:16:30;;;;;;;24.13;21.53;;;6.40;34.90;;;;;;6187856;23;20454;-86
2022/03/24 06:18:56;;;;;;;21.73;18.10;;;6.40;34.50;;;;;;6187184;23;20450;-87
2022/03/24 06:21:22;;;;;;;22.03;17.27;;;6.50;34.70;;;;;;6186598;23;20406;-87
2022/03/24 06:23:50;;;;;;;19.57;17.67;;;6.40;34.00;;;;;;6186650;23;20156;-87
2022/03/24 06:26:21;;;;;;;20.00;17.87;;;6.50;35.10;;;;;;6187165;23;20873;-88
2022/03/24 06:28:48;;;;;;;24.00;20.57;;;6.50;34.90;;;;;;6186174;23;20395;-89
2022/03/24 06:31:14;;;;;;;19.53;17.77;;;6.60;34.80;;;;;;6187614;23;20468;-88
2022/03/24 06:33:40;;;;;;;19.67;15.67;;;6.60;34.40;;;;;;6187264;23;20387;-88
2022/03/24 06:36:08;;;;;;;13.77;12.50;;;6.70;34.60;;;;;;6187773;23;20387;-88
2022/03/24 06:38:35;;;;;;;21.13;18.50;;;6.70;34.60;;;;;;6187979;23;20454;-88
2022/03/24 06:41:02;;;;;;;23.13;20.50;;;6.80;34.50;;;;;;6188016;23;20386;-89
2022/03/24 06:43:27;;;;;;;18.57;13.77;;;6.90;35.70;;;;;;6187841;23;20399;-86
2022/03/24 06:45:53;;;;;;;26.50;22.23;;;6.80;34.50;;;;;;6213765;23;20855;-84
2022/03/24 06:48:19;;;;;;;22.57;20.00;;;6.90;33.90;;;;;;6188668;23;20233;-86
2022/03/24 06:50:44;;;;;;;19.15;13.73;;;6.90;34.70;;;;;;6188405;23;20393;-86
2022/03/24 06:53:10;;;;;;;16.43;13.53;;;6.90;34.00;;;;;;6188040;23;20188;-86
2022/03/24 06:55:36;;;;;;;16.33;12.10;;;7.00;33.80;;;;;;6188413;23;20167;-85
2022/03/24 06:58:02;;;;;;;22.70;14.70;;;7.10;34.80;;;;;;6190043;23;20192;-86
2022/03/24 07:00:28;;;;;;;18.20;14.40;;;7.10;33.40;;;;;;6189345;23;20155;-86
2022/03/24 07:02:54;;;;;;;15.93;14.10;;;7.10;33.50;;;;;;6189195;23;20422;-88
2022/03/24 07:05:20;;;;;;;16.27;13.93;;;7.20;33.90;;;;;;6189755;23;20703;-87
2022/03/24 07:07:45;;;;;;;16.57;14.90;;;7.20;34.80;;;;;;6189223;23;20233;-87
2022/03/24 07:10:12;;;;;;;15.30;13.63;;;7.30;33.80;;;;;;6189336;23;20152;-86
2022/03/24 07:12:37;;;;;;;19.80;14.53;;;7.30;31.60;;;;;;6189845;23;20159;-87
2022/03/24 07:15:08;;;;;;;28.70;24.70;;;7.30;32.40;;;;;;6188865;23;20444;-86
2022/03/24 07:17:34;;;;;;;18.30;13.83;;;7.20;31.70;;;;;;6189540;23;20394;-86
2022/03/24 07:20:23;;;;;;;18.03;14.00;;;7.30;32.40;;;;;;6189438;23;20775;-88
2022/03/24 07:22:57;;;;;;;18.87;14.83;;;7.50;31.80;;;;;;6214980;23;20398;-90
2022/03/24 07:25:24;;;;;;;16.83;13.23;;;7.60;32.00;;;;;;6185588;23;20386;-86
2022/03/24 07:27:51;;;;;;;17.90;15.30;;;7.60;31.90;;;;;;6189988;23;20393;-87
2022/03/24 07:30:16;;;;;;;14.50;13.07;;;7.70;32.00;;;;;;6190792;23;20864;-87
2022/03/24 07:32:43;;;;;;;25.08;16.08;;;7.70;31.80;;;;;;6195053;23;20416;-88
2022/03/24 07:35:09;;;;;;;22.43;14.63;;;7.80;33.00;;;;;;6201059;23;20239;-87
2022/03/24 07:37:36;;;;;;;30.93;26.00;;;7.80;32.00;;;;;;6190588;23;20383;-87
2022/03/24 07:40:07;;;;;;;17.80;13.90;;;7.90;31.50;;;;;;6189107;23;20430;-87
2022/03/24 07:42:33;;;;;;;15.70;13.30;;;7.90;31.20;;;;;;6189088;23;20461;-87
2022/03/24 07:44:59;;;;;;;17.17;14.23;;;8.00;31.50;;;;;;6214208;23;20852;-86
2022/03/24 07:47:27;;;;;;;29.63;15.57;;;8.00;30.40;;;;;;6188544;23;20386;-87
2022/03/24 07:49:56;;;;;;;17.20;15.37;;;8.10;30.30;;;;;;6214577;23;20922;-86
2022/03/24 07:52:27;;;;;;;16.70;13.20;;;8.20;30.30;;;;;;6189204;23;20390;-87
2022/03/24 07:54:59;;;;;;;18.33;14.50;;;8.30;30.50;;;;;;6189183;23;20445;-87
2022/03/24 07:57:30;;;;;;;15.37;12.37;;;8.30;31.50;;;;;;6213791;23;20398;-87
2022/03/24 07:59:58;;;;;;;19.63;14.37;;;8.40;31.60;;;;;;6189241;23;20423;-86
2022/03/24 08:02:24;;;;;;;19.13;14.17;;;8.40;29.80;;;;;;6188781;23;20380;-87
2022/03/24 08:04:51;;;;;;;20.30;14.93;;;8.50;30.50;;;;;;6188937;23;20522;-87
2022/03/24 08:07:17;;;;;;;15.67;14.00;;;8.60;30.50;;;;;;6188669;23;20386;-87
2022/03/24 08:09:43;;;;;;;17.47;15.70;;;8.70;29.90;;;;;;6188322;23;20391;-88
2022/03/24 08:12:09;;;;;;;32.40;14.53;;;8.80;29.20;;;;;;6188901;23;20156;-87
2022/03/24 08:14:35;;;;;;;20.50;14.23;;;8.80;30.50;;;;;;6188469;23;20160;-88
2022/03/24 08:17:01;;;;;;;16.70;14.00;;;8.80;30.40;;;;;;6189023;23;20419;-88
2022/03/24 08:19:26;;;;;;;19.00;16.30;;;8.90;29.50;;;;;;6188913;23;20514;-87
2022/03/24 08:21:52;;;;;;;21.07;14.00;;;9.00;29.60;;;;;;6188689;23;20178;-87
2022/03/24 08:24:18;;;;;;;21.87;14.50;;;9.10;29.50;;;;;;6188105;23;20235;-87
2022/03/24 08:26:44;;;;;;;28.43;17.00;;;9.10;29.40;;;;;;6188902;23;20156;-88
2022/03/24 08:29:11;;;;;;;31.07;14.87;;;9.20;29.00;;;;;;6188777;23;20173;-88
2022/03/24 08:31:37;;;;;;;24.17;16.30;;;9.20;29.20;;;;;;6188635;23;20419;-87
2022/03/24 08:34:02;;;;;;;21.10;15.97;;;9.30;29.60;;;;;;6188095;23;20461;-87
2022/03/24 08:36:28;;;;;;;28.53;18.37;;;9.40;29.80;;;;;;6189097;23;20160;-87
2022/03/24 08:38:59;;;;;;;19.43;15.23;;;9.40;29.00;;;;;;6189828;23;20186;-86
2022/03/24 08:41:25;;;;;;;18.37;15.47;;;9.50;27.80;;;;;;6189774;23;20380;-87
2022/03/24 08:43:51;;;;;;;19.63;15.33;;;9.60;28.20;;;;;;6189476;23;20395;-86
2022/03/24 08:46:17;;;;;;;21.03;15.73;;;9.70;29.50;;;;;;6189001;23;20380;-87
2022/03/24 08:48:43;;;;;;;21.30;16.93;;;9.70;28.60;;;;;;6188338;23;20782;-87
2022/03/24 08:51:08;;;;;;;23.73;18.27;;;9.80;28.80;;;;;;6188928;23;20425;-86
2022/03/24 08:53:34;;;;;;;27.90;18.50;;;9.90;28.10;;;;;;6188294;23;20152;-86
2022/03/24 08:56:00;;;;;;;22.30;17.87;;;9.90;27.10;;;;;;6188706;23;20152;-87
2022/03/24 08:58:26;;;;;;;26.05;16.90;;;10.00;26.80;;;;;;6188388;23;20398;-86
2022/03/24 09:00:51;;;;;;;24.80;18.10;;;10.10;27.00;;;;;;6188782;23;20210;-86
2022/03/24 09:03:17;;;;;;;20.83;15.93;;;10.20;25.70;;;;;;6188182;23;20160;-86
2022/03/24 09:05:43;;;;;;;20.37;17.43;;;10.30;25.90;;;;;;6188670;23;20166;-86
2022/03/24 09:08:08;;;;;;;27.37;16.80;;;10.30;26.20;;;;;;6213733;23;20156;-86
2022/03/24 09:10:34;;;;;;;20.33;16.90;;;10.40;25.90;;;;;;6188587;23;20184;-86
2022/03/24 09:13:00;;;;;;;22.80;17.80;;;10.50;24.80;;;;;;6213276;23;20214;-86
2022/03/24 09:15:26;;;;;;;26.60;18.13;;;10.60;25.70;;;;;;6212856;23;20554;-86
2022/03/24 09:17:52;;;;;;;22.43;17.47;;;10.70;25.60;;;;;;6187554;23;20644;-86
2022/03/24 09:20:19;;;;;;;23.90;17.80;;;10.80;25.90;;;;;;6187961;23;20647;-86
2022/03/24 09:22:46;;;;;;;20.17;17.03;;;10.80;26.10;;;;;;6188270;23;20727;-86
2022/03/24 09:25:14;;;;;;;24.77;17.30;;;11.00;25.80;;;;;;6214396;23;20878;-87
2022/03/24 09:27:41;;;;;;;24.10;17.97;;;11.00;25.00;;;;;;6188421;23;20434;-87
2022/03/24 09:30:09;;;;;;;23.87;19.13;;;11.10;25.40;;;;;;6188254;23;20726;-87
2022/03/24 09:32:35;;;;;;;20.30;16.87;;;11.30;25.10;;;;;;6187735;23;20470;-86
2022/03/24 09:35:03;;;;;;;21.37;17.20;;;11.30;24.60;;;;;;6188033;23;20391;-87
2022/03/24 09:37:29;;;;;;;38.20;16.77;;;11.40;24.20;;;;;;6188049;23;20718;-86
2022/03/24 09:39:55;;;;;;;39.60;20.80;;;11.60;22.70;;;;;;6187638;23;20427;-86
2022/03/24 09:42:24;;;;;;;26.47;18.80;;;11.70;23.10;;;;;;6188205;23;20386;-87
2022/03/24 09:44:50;;;;;;;24.00;18.13;;;11.80;24.10;;;;;;6187404;23;20398;-86
2022/03/24 09:47:16;;;;;;;25.27;18.53;;;11.90;22.70;;;;;;6212955;23;20383;-86
2022/03/24 09:49:43;;;;;;;21.00;17.50;;;12.00;22.30;;;;;;6187782;23;20693;-87
2022/03/24 09:52:11;;;;;;;29.73;25.50;;;12.10;22.70;;;;;;6187616;23;20417;-86
2022/03/24 09:54:45;;;;;;;31.27;20.37;;;12.20;21.30;;;;;;6191770;23;20391;-86
2022/03/24 09:57:11;;;;;;;28.93;26.10;;;12.20;21.80;;;;;;6198249;23;20406;-86
2022/03/24 09:59:37;;;;;;;23.20;16.53;;;12.40;21.90;;;;;;6215003;23;20425;-87
2022/03/24 10:02:05;;;;;;;24.83;18.27;;;12.50;21.80;;;;;;6187912;23;20379;-86
2022/03/24 10:04:51;;;;;;;22.73;17.87;;;12.60;21.30;;;;;;6188381;23;20159;-87
2022/03/24 10:07:25;;;;;;;29.40;19.30;;;12.70;19.90;;;;;;6187869;23;20410;-87
2022/03/24 10:09:55;;;;;;;24.93;18.30;;;12.90;19.70;;;;;;6187554;23;20395;-86
2022/03/24 10:12:24;;;;;;;22.17;19.00;;;13.00;20.00;;;;;;6188250;23;20465;-86
2022/03/24 10:15:05;;;;;;;27.03;19.30;;;13.20;19.20;;;;;;6187736;23;20390;-86
2022/03/24 10:17:32;;;;;;;29.33;17.37;;;13.30;19.20;;;;;;6213237;23;20414;-86
2022/03/24 10:20:05;;;;;;;24.53;18.70;;;13.40;18.10;;;;;;6187537;23;20438;-86
2022/03/24 10:22:32;;;;;;;20.47;18.27;;;13.60;16.90;;;;;;6187437;23;20399;-86
2022/03/24 10:25:02;;;;;;;23.97;17.40;;;13.70;17.40;;;;;;6186995;23;20851;-86
2022/03/24 10:27:29;;;;;;;21.40;17.97;;;13.90;17.50;;;;;;6187377;23;20481;-86
2022/03/24 10:29:57;;;;;;;28.20;21.43;;;14.00;17.60;;;;;;6187374;23;20696;-86
2022/03/24 10:32:29;;;;;;;31.10;19.83;;;14.10;18.10;;;;;;6188083;23;20446;-86
2022/03/24 10:35:08;;;;;;;23.90;17.70;;;14.30;17.80;;;;;;6187253;23;20717;-86
2022/03/24 10:37:38;;;;;;;23.30;19.83;;;14.50;16.70;;;;;;6187792;23;20427;-86
2022/03/24 10:40:06;;;;;;;23.90;21.40;;;14.50;17.50;;;;;;6186589;23;20427;-85
2022/03/24 10:42:40;;;;;;;26.73;20.10;;;14.70;16.50;;;;;;6188099;23;20386;-87
2022/03/24 10:45:32;;;;;;;28.47;21.67;;;14.70;16.00;;;;;;6187417;23;20401;-80
2022/03/24 10:48:10;;;;;;;22.23;19.20;;;14.80;15.30;;;;;;6212830;23;20391;-79
2022/03/24 10:50:44;;;;;;;23.63;21.10;;;14.80;16.20;;;;;;6213129;23;20369;-79
2022/03/24 10:53:19;;;;;;;25.03;20.20;;;14.80;16.40;;;;;;6186369;23;20449;-78
2022/03/24 10:56:12;;;;;;;25.30;19.00;;;14.80;16.30;;;;;;6187296;23;20454;-78
2022/03/24 10:59:03;;;;;;;22.97;18.33;;;14.80;16.30;;;;;;6189503;22;20606;-86
2022/03/24 11:01:31;;;;;;;22.03;18.40;;;14.80;16.40;;;;;;6187159;23;20426;-86
2022/03/24 11:03:57;;;;;;;23.47;19.70;;;15.00;16.30;;;;;;6186914;23;20440;-86
2022/03/24 11:06:24;;;;;;;21.80;19.43;;;15.00;15.80;;;;;;6214602;23;20352;-87
2022/03/24 11:08:54;;;;;;;32.20;20.20;;;15.00;16.30;;;;;;6187121;23;20410;-86
2022/03/24 11:11:25;;;;;;;22.50;18.60;;;15.10;16.00;;;;;;6187782;23;20503;-87
2022/03/24 11:14:57;;;;;;;22.47;17.70;;;15.10;16.00;;;;;;6186425;23;20832;-89
2022/03/24 11:17:25;;;;;;;25.70;20.30;;;15.20;15.40;;;;;;6186363;23;20480;-88
2022/03/24 11:20:07;;;;;;;26.23;18.80;;;15.30;14.30;;;;;;6186881;23;20435;-87
2022/03/24 11:22:55;;;;;;;24.93;19.53;;;15.40;14.50;;;;;;6187290;23;20922;-87
2022/03/24 11:25:23;;;;;;;22.43;18.17;;;15.50;14.80;;;;;;6187550;23;20495;-87
2022/03/24 11:27:50;;;;;;;22.47;17.97;;;15.50;13.20;;;;;;6187254;23;20398;-87
2022/03/24 11:30:18;;;;;;;23.20;17.93;;;15.60;12.80;;;;;;6187503;23;20375;-87
2022/03/24 11:33:19;;;;;;;21.03;17.00;;;15.60;12.40;;;;;;6187722;23;20383;-88
2022/03/24 11:35:45;;;;;;;17.37;15.67;;;15.60;12.60;;;;;;6201052;23;20390;-86
2022/03/24 11:38:11;;;;;;;18.87;16.93;;;15.60;11.10;;;;;;6188484;23;20906;-87
2022/03/24 11:40:39;;;;;;;23.67;18.27;;;15.70;10.20;;;;;;6188110;23;20594;-86
2022/03/24 11:43:21;;;;;;;15.30;13.70;;;15.80;9.80;;;;;;6189163;23;20422;-87
2022/03/24 11:45:53;;;;;;;17.77;15.97;;;15.90;9.00;;;;;;6189205;23;20417;-87
2022/03/24 11:48:30;;;;;;;16.90;15.10;;;15.80;8.90;;;;;;6189137;23;20395;-87
2022/03/24 11:50:56;;;;;;;18.60;16.70;;;15.80;10.30;;;;;;6188823;23;20444;-87
2022/03/24 11:53:25;;;;;;;17.73;16.03;;;15.80;10.00;;;;;;6188585;23;20919;-87
2022/03/24 11:56:01;;;;;;;18.27;16.30;;;15.90;9.00;;;;;;6188957;23;20186;-87
2022/03/24 11:58:36;;;;;;;16.23;14.53;;;16.00;9.60;;;;;;6188268;23;20621;-87
2022/03/24 12:01:20;;;;;;;21.10;15.40;;;16.10;8.90;;;;;;6188879;23;20394;-87
2022/03/24 12:03:48;;;;;;;19.37;15.60;;;16.20;8.70;;;;;;6207751;23;20517;-88
2022/03/24 12:06:16;;;;;;;20.60;16.83;;;16.30;8.80;;;;;;6188065;23;20376;-86
2022/03/24 12:08:50;;;;;;;17.90;15.23;;;16.40;9.20;;;;;;6188066;23;20395;-86
2022/03/24 12:11:31;;;;;;;19.23;17.23;;;16.40;9.10;;;;;;6188473;23;20379;-87
2022/03/24 12:14:02;;;;;;;21.30;16.37;;;16.50;9.40;;;;;;6188095;23;20788;-84
2022/03/24 12:16:31;;;;;;;20.27;17.90;;;16.60;10.30;;;;;;6217517;23;20398;-86
2022/03/24 12:18:57;;;;;;;21.47;19.00;;;16.60;10.00;;;;;;6194258;23;20908;-86
2022/03/24 12:21:24;;;;;;;22.00;19.40;;;16.70;10.20;;;;;;6216118;23;20395;-85
2022/03/24 12:24:02;;;;;;;23.63;18.93;;;16.70;9.80;;;;;;6189740;23;20466;-87
2022/03/24 12:26:30;;;;;;;19.10;16.43;;;16.80;10.20;;;;;;6188704;23;20375;-86
2022/03/24 12:29:17;;;;;;;19.20;17.30;;;16.80;8.70;;;;;;6214856;23;20416;-87
2022/03/24 12:32:01;;;;;;;21.13;19.03;;;16.90;10.60;;;;;;6189132;23;20164;-86
2022/03/24 12:34:43;;;;;;;20.57;18.67;;;16.90;9.20;;;;;;6189209;23;20767;-87
2022/03/24 12:37:27;;;;;;;20.27;18.10;;;16.90;9.60;;;;;;6188587;23;20914;-86
2022/03/24 12:40:22;;;;;;;19.70;17.67;;;16.90;9.10;;;;;;6188459;23;20868;-86
2022/03/24 12:42:53;;;;;;;18.77;16.70;;;16.90;8.60;;;;;;6157896;23;20391;-87
2022/03/24 12:45:27;;;;;;;20.70;18.47;;;16.90;8.80;;;;;;6188206;23;20383;-86
2022/03/24 12:48:07;;;;;;;17.80;16.10;;;16.90;9.70;;;;;;6188856;23;20924;-85
2022/03/24 12:50:45;;;;;;;19.27;16.70;;;16.90;8.60;;;;;;6189155;23;20382;-87
2022/03/24 12:53:12;;;;;;;22.30;16.23;;;17.10;8.30;;;;;;6188559;23;20387;-87
2022/03/24 12:55:43;;;;;;;17.60;15.70;;;17.10;7.90;;;;;;6188748;23;20391;-88
2022/03/24 12:58:11;;;;;;;18.40;16.50;;;17.20;7.40;;;;;;6188385;23;20391;-87
2022/03/24 13:00:48;;;;;;;16.57;15.17;;;17.20;6.60;;;;;;6161913;23;20408;-87